VIR17A EGCC-LEJR
Flight info
| Callsign | VIR17A |
|---|---|
| Flight time | 2h 23m |
| Altitude | 38000 |
| Route | KUXEM P17 BEPHE DCT OSSEP DCT ELNIF DCT ZESPE DCT KLAKI DCT SALCO/N0469F390 DCT DELOG N864 SNR N864 MONTO N857 HIJ |
| Aircraft | A346/H-SDE2E3FGHIJ3J4J5M1RWXY/LB1D1 |
Departure
| Time | 2026-05-07 13:16 |
|---|---|
| Airport | Manchester Airport (EGCC) |
Arrival
| Time | 2026-05-07 15:39 |
|---|---|
| Airport | Jerez Airport (LEJR) |
| Time | Latitude | Longitude | Altitude | Speed | Heading |
|---|---|---|---|---|---|
| 2026-05-07 12:52 | 53.36632 | -2.28253 | 263 ft | 0 kts | 314° |
| 2026-05-07 13:00 | 53.36631 | -2.28251 | 263 ft | 2 kts | 314° |
| 2026-05-07 13:00 | 53.36616 | -2.28225 | 265 ft | 4 kts | 315° |
| 2026-05-07 13:00 | 53.36601 | -2.28200 | 265 ft | 4 kts | 314° |
| 2026-05-07 13:00 | 53.36581 | -2.28162 | 267 ft | 4 kts | 309° |
| 2026-05-07 13:01 | 53.36570 | -2.28141 | 267 ft | 4 kts | 310° |
| 2026-05-07 13:01 | 53.36554 | -2.28109 | 267 ft | 2 kts | 315° |
| 2026-05-07 13:01 | 53.36538 | -2.28083 | 267 ft | 4 kts | 315° |
| 2026-05-07 13:01 | 53.36519 | -2.28051 | 270 ft | 3 kts | 315° |
| 2026-05-07 13:02 | 53.36517 | -2.28047 | 270 ft | 0 kts | 315° |
| 2026-05-07 13:07 | 53.36519 | -2.28051 | 263 ft | 2 kts | 315° |
| 2026-05-07 13:07 | 53.36536 | -2.28081 | 263 ft | 5 kts | 312° |
| 2026-05-07 13:08 | 53.36550 | -2.28153 | 263 ft | 9 kts | 259° |
| 2026-05-07 13:08 | 53.36510 | -2.28255 | 263 ft | 12 kts | 225° |
| 2026-05-07 13:08 | 53.36434 | -2.28362 | 263 ft | 14 kts | 195° |
| 2026-05-07 13:08 | 53.36425 | -2.28365 | 263 ft | 0 kts | 189° |
| 2026-05-07 13:09 | 53.36418 | -2.28365 | 263 ft | 2 kts | 179° |
| 2026-05-07 13:09 | 53.36395 | -2.28354 | 263 ft | 5 kts | 154° |
| 2026-05-07 13:09 | 53.36359 | -2.28306 | 263 ft | 8 kts | 136° |
| 2026-05-07 13:09 | 53.36310 | -2.28222 | 263 ft | 12 kts | 134° |
| 2026-05-07 13:10 | 53.36246 | -2.28114 | 263 ft | 14 kts | 135° |
| 2026-05-07 13:10 | 53.36164 | -2.27985 | 263 ft | 18 kts | 140° |
| 2026-05-07 13:10 | 53.36073 | -2.27862 | 263 ft | 14 kts | 142° |
| 2026-05-07 13:10 | 53.35985 | -2.27756 | 263 ft | 17 kts | 153° |
| 2026-05-07 13:11 | 53.35858 | -2.27728 | 263 ft | 20 kts | 175° |
| 2026-05-07 13:11 | 53.35771 | -2.27674 | 259 ft | 4 kts | 154° |
| 2026-05-07 13:11 | 53.35725 | -2.27638 | 257 ft | 11 kts | 155° |
| 2026-05-07 13:11 | 53.35651 | -2.27560 | 255 ft | 8 kts | 142° |
| 2026-05-07 13:12 | 53.35621 | -2.27522 | 254 ft | 3 kts | 142° |
| 2026-05-07 13:12 | 53.35592 | -2.27485 | 253 ft | 7 kts | 142° |
| 2026-05-07 13:12 | 53.35546 | -2.27423 | 255 ft | 9 kts | 141° |
| 2026-05-07 13:12 | 53.35492 | -2.27350 | 257 ft | 11 kts | 141° |
| 2026-05-07 13:13 | 53.35419 | -2.27251 | 255 ft | 16 kts | 141° |
| 2026-05-07 13:13 | 53.35352 | -2.27197 | 253 ft | 11 kts | 171° |
| 2026-05-07 13:13 | 53.35251 | -2.27219 | 246 ft | 19 kts | 191° |
| 2026-05-07 13:13 | 53.35177 | -2.27242 | 240 ft | 0 kts | 190° |
| 2026-05-07 13:14 | 53.35169 | -2.27244 | 239 ft | 2 kts | 190° |
| 2026-05-07 13:14 | 53.35168 | -2.27245 | 239 ft | 0 kts | 190° |
| 2026-05-07 13:14 | 53.35146 | -2.27252 | 238 ft | 6 kts | 190° |
| 2026-05-07 13:14 | 53.35082 | -2.27271 | 240 ft | 12 kts | 190° |
| 2026-05-07 13:15 | 53.35010 | -2.27326 | 237 ft | 9 kts | 225° |
| 2026-05-07 13:15 | 53.34925 | -2.27493 | 235 ft | 46 kts | 230° |
| 2026-05-07 13:15 | 53.34571 | -2.28222 | 237 ft | 112 kts | 231° |
| 2026-05-07 13:15 | 53.33956 | -2.29478 | 248 ft | 164 kts | 232° |
| 2026-05-07 13:16 | 53.33201 | -2.31091 | 583 ft | 183 kts | 230° |
| 2026-05-07 13:16 | 53.32401 | -2.32756 | 1373 ft | 181 kts | 228° |
| 2026-05-07 13:16 | 53.31848 | -2.34626 | 2162 ft | 185 kts | 260° |
| 2026-05-07 13:16 | 53.32002 | -2.36854 | 2651 ft | 200 kts | 278° |
| 2026-05-07 13:17 | 53.32343 | -2.39221 | 3126 ft | 215 kts | 280° |
| 2026-05-07 13:17 | 53.32710 | -2.41740 | 3493 ft | 235 kts | 275° |
| 2026-05-07 13:17 | 53.32611 | -2.44519 | 3949 ft | 247 kts | 252° |
| 2026-05-07 13:17 | 53.32059 | -2.47303 | 4649 ft | 255 kts | 247° |
| 2026-05-07 13:18 | 53.31457 | -2.50086 | 5550 ft | 257 kts | 248° |
| 2026-05-07 13:18 | 53.30872 | -2.52950 | 6517 ft | 258 kts | 249° |
| 2026-05-07 13:18 | 53.30318 | -2.55816 | 7433 ft | 260 kts | 250° |
| 2026-05-07 13:18 | 53.29769 | -2.58719 | 8269 ft | 265 kts | 247° |
| 2026-05-07 13:19 | 53.28896 | -2.61444 | 9101 ft | 267 kts | 233° |
| 2026-05-07 13:19 | 53.27762 | -2.63936 | 9997 ft | 270 kts | 227° |
| 2026-05-07 13:19 | 53.26474 | -2.66224 | 10765 ft | 277 kts | 222° |
| 2026-05-07 13:19 | 53.24965 | -2.68400 | 11241 ft | 294 kts | 216° |
| 2026-05-07 13:20 | 53.23245 | -2.70443 | 11715 ft | 312 kts | 213° |
| 2026-05-07 13:20 | 53.21395 | -2.72554 | 12164 ft | 330 kts | 213° |
| 2026-05-07 13:20 | 53.19443 | -2.74779 | 12589 ft | 349 kts | 213° |
| 2026-05-07 13:20 | 53.17422 | -2.77089 | 13132 ft | 361 kts | 213° |
| 2026-05-07 13:21 | 53.15327 | -2.79492 | 14012 ft | 366 kts | 213° |
| 2026-05-07 13:21 | 53.13214 | -2.81914 | 14792 ft | 370 kts | 213° |
| 2026-05-07 13:21 | 53.11103 | -2.84334 | 15555 ft | 374 kts | 213° |
| 2026-05-07 13:21 | 53.08820 | -2.86479 | 16319 ft | 378 kts | 201° |
| 2026-05-07 13:22 | 53.06241 | -2.87479 | 17110 ft | 383 kts | 185° |
| 2026-05-07 13:22 | 53.03580 | -2.87263 | 17835 ft | 390 kts | 173° |
| 2026-05-07 13:22 | 53.00879 | -2.86524 | 18565 ft | 395 kts | 172° |
| 2026-05-07 13:22 | 52.98153 | -2.85750 | 19200 ft | 400 kts | 172° |
| 2026-05-07 13:23 | 52.95398 | -2.84977 | 19879 ft | 403 kts | 172° |
| 2026-05-07 13:23 | 52.92654 | -2.84221 | 20524 ft | 408 kts | 172° |
| 2026-05-07 13:23 | 52.89828 | -2.83450 | 21179 ft | 412 kts | 172° |
| 2026-05-07 13:23 | 52.86994 | -2.82683 | 21836 ft | 416 kts | 172° |
| 2026-05-07 13:24 | 52.84150 | -2.81915 | 22492 ft | 419 kts | 172° |
| 2026-05-07 13:24 | 52.81234 | -2.81131 | 23181 ft | 423 kts | 172° |
| 2026-05-07 13:24 | 52.78319 | -2.80348 | 23802 ft | 427 kts | 171° |
| 2026-05-07 13:24 | 52.75411 | -2.79569 | 24323 ft | 430 kts | 171° |
| 2026-05-07 13:25 | 52.72441 | -2.78774 | 24854 ft | 433 kts | 171° |
| 2026-05-07 13:25 | 52.69445 | -2.77972 | 25391 ft | 437 kts | 171° |
| 2026-05-07 13:25 | 52.66472 | -2.77177 | 25928 ft | 440 kts | 171° |
| 2026-05-07 13:25 | 52.63413 | -2.76517 | 26483 ft | 442 kts | 174° |
| 2026-05-07 13:26 | 52.60327 | -2.76176 | 27031 ft | 445 kts | 178° |
| 2026-05-07 13:26 | 52.57212 | -2.76159 | 27527 ft | 449 kts | 181° |
| 2026-05-07 13:26 | 52.54108 | -2.76413 | 28007 ft | 453 kts | 182° |
| 2026-05-07 13:26 | 52.50929 | -2.76692 | 28523 ft | 456 kts | 182° |
| 2026-05-07 13:27 | 52.47755 | -2.76968 | 29237 ft | 454 kts | 182° |
| 2026-05-07 13:27 | 52.44652 | -2.77237 | 30022 ft | 452 kts | 182° |
| 2026-05-07 13:27 | 52.41525 | -2.77509 | 30648 ft | 450 kts | 182° |
| 2026-05-07 13:27 | 52.38397 | -2.77779 | 31240 ft | 449 kts | 182° |
| 2026-05-07 13:28 | 52.35290 | -2.78046 | 31835 ft | 447 kts | 181° |
| 2026-05-07 13:28 | 52.32175 | -2.78313 | 32439 ft | 446 kts | 181° |
| 2026-05-07 13:28 | 52.29118 | -2.78575 | 33017 ft | 445 kts | 181° |
| 2026-05-07 13:28 | 52.26003 | -2.78842 | 33600 ft | 444 kts | 181° |
| 2026-05-07 13:29 | 52.22912 | -2.79100 | 34161 ft | 443 kts | 182° |
| 2026-05-07 13:29 | 52.19838 | -2.79356 | 34624 ft | 442 kts | 182° |
| 2026-05-07 13:29 | 52.16798 | -2.79616 | 35040 ft | 442 kts | 182° |
| 2026-05-07 13:29 | 52.13712 | -2.79882 | 35454 ft | 442 kts | 183° |
| 2026-05-07 13:30 | 52.10637 | -2.80145 | 35857 ft | 442 kts | 183° |
| 2026-05-07 13:30 | 52.07552 | -2.80408 | 36219 ft | 443 kts | 183° |
| 2026-05-07 13:30 | 52.04496 | -2.80668 | 36551 ft | 444 kts | 183° |
| 2026-05-07 13:30 | 52.01399 | -2.80932 | 36850 ft | 446 kts | 183° |
| 2026-05-07 13:31 | 51.98293 | -2.81193 | 37120 ft | 448 kts | 184° |
| 2026-05-07 13:31 | 51.95165 | -2.81458 | 37377 ft | 450 kts | 184° |
| 2026-05-07 13:31 | 51.92067 | -2.81722 | 37633 ft | 452 kts | 184° |
| 2026-05-07 13:31 | 51.88909 | -2.81989 | 37906 ft | 453 kts | 184° |
| 2026-05-07 13:32 | 51.85785 | -2.82318 | 38040 ft | 455 kts | 186° |
| 2026-05-07 13:32 | 51.82630 | -2.82898 | 38039 ft | 456 kts | 188° |
| 2026-05-07 13:32 | 51.76325 | -2.84272 | 38030 ft | 456 kts | 188° |
| 2026-05-07 13:33 | 51.70051 | -2.85600 | 38037 ft | 457 kts | 188° |
| 2026-05-07 13:33 | 51.63730 | -2.86943 | 38039 ft | 457 kts | 188° |
| 2026-05-07 13:34 | 51.54284 | -2.88949 | 38043 ft | 457 kts | 188° |
| 2026-05-07 13:35 | 51.47999 | -2.90284 | 38029 ft | 457 kts | 188° |
| 2026-05-07 13:35 | 51.41687 | -2.91620 | 38033 ft | 456 kts | 188° |
| 2026-05-07 13:36 | 51.35414 | -2.92943 | 38029 ft | 456 kts | 188° |
| 2026-05-07 13:36 | 51.29103 | -2.94268 | 38022 ft | 456 kts | 188° |
| 2026-05-07 13:37 | 51.22845 | -2.95577 | 38020 ft | 455 kts | 188° |
| 2026-05-07 13:37 | 51.16541 | -2.96895 | 38023 ft | 455 kts | 188° |
| 2026-05-07 13:38 | 51.10276 | -2.98201 | 38028 ft | 455 kts | 188° |
| 2026-05-07 13:38 | 51.04022 | -2.99501 | 38028 ft | 455 kts | 188° |
| 2026-05-07 13:39 | 50.97747 | -3.00801 | 38029 ft | 455 kts | 188° |
| 2026-05-07 13:39 | 50.91500 | -3.02091 | 38028 ft | 456 kts | 188° |
| 2026-05-07 13:39 | 50.88332 | -3.02745 | 38132 ft | 460 kts | 188° |
| 2026-05-07 13:40 | 50.85152 | -3.03400 | 38489 ft | 458 kts | 188° |
| 2026-05-07 13:40 | 50.81984 | -3.04051 | 38833 ft | 457 kts | 188° |
| 2026-05-07 13:40 | 50.78817 | -3.04700 | 39021 ft | 457 kts | 188° |
| 2026-05-07 13:41 | 50.72544 | -3.05986 | 39031 ft | 457 kts | 188° |
| 2026-05-07 13:41 | 50.66207 | -3.07280 | 39033 ft | 457 kts | 188° |
| 2026-05-07 13:42 | 50.59927 | -3.08559 | 39028 ft | 457 kts | 188° |
| 2026-05-07 13:42 | 50.53604 | -3.09843 | 39032 ft | 457 kts | 188° |
| 2026-05-07 13:43 | 50.47329 | -3.11114 | 39032 ft | 457 kts | 188° |
| 2026-05-07 13:43 | 50.41025 | -3.12606 | 39032 ft | 456 kts | 192° |
| 2026-05-07 13:44 | 50.34890 | -3.15009 | 39023 ft | 455 kts | 198° |
| 2026-05-07 13:44 | 50.28920 | -3.18386 | 39026 ft | 455 kts | 202° |
| 2026-05-07 13:45 | 50.23080 | -3.22102 | 39026 ft | 455 kts | 202° |
| 2026-05-07 13:45 | 50.17189 | -3.25814 | 39025 ft | 456 kts | 202° |
| 2026-05-07 13:46 | 50.11317 | -3.29506 | 39022 ft | 456 kts | 202° |
| 2026-05-07 13:46 | 50.05404 | -3.33219 | 39021 ft | 456 kts | 202° |
| 2026-05-07 13:47 | 49.99533 | -3.36898 | 39019 ft | 456 kts | 202° |
| 2026-05-07 13:47 | 49.93614 | -3.40596 | 39019 ft | 456 kts | 202° |
| 2026-05-07 13:48 | 49.87750 | -3.44247 | 39011 ft | 456 kts | 202° |
| 2026-05-07 13:48 | 49.82843 | -3.47296 | 39012 ft | 456 kts | 202° |
| 2026-05-07 13:49 | 49.75815 | -3.50888 | 39015 ft | 457 kts | 195° |
| 2026-05-07 13:49 | 49.70624 | -3.52648 | 39011 ft | 457 kts | 191° |
| 2026-05-07 13:50 | 49.64336 | -3.53829 | 39005 ft | 458 kts | 185° |
| 2026-05-07 13:50 | 49.56918 | -3.54501 | 39006 ft | 458 kts | 185° |
| 2026-05-07 13:51 | 49.51624 | -3.55002 | 39000 ft | 458 kts | 185° |
| 2026-05-07 13:51 | 49.45247 | -3.55600 | 38993 ft | 458 kts | 185° |
| 2026-05-07 13:52 | 49.38917 | -3.56188 | 39001 ft | 458 kts | 185° |
| 2026-05-07 13:52 | 49.32571 | -3.56776 | 38997 ft | 458 kts | 185° |
| 2026-05-07 13:53 | 49.26181 | -3.57366 | 38993 ft | 458 kts | 185° |
| 2026-05-07 13:53 | 49.19810 | -3.57949 | 38985 ft | 458 kts | 185° |
| 2026-05-07 13:54 | 49.13447 | -3.58534 | 38988 ft | 458 kts | 185° |
| 2026-05-07 13:54 | 49.07042 | -3.59124 | 38992 ft | 469 kts | 185° |
| 2026-05-07 13:55 | 49.00448 | -3.59727 | 38978 ft | 475 kts | 185° |
| 2026-05-07 13:55 | 48.93887 | -3.60323 | 38986 ft | 475 kts | 185° |
| 2026-05-07 13:56 | 48.87260 | -3.60924 | 38983 ft | 475 kts | 185° |
| 2026-05-07 13:56 | 48.80688 | -3.61519 | 38988 ft | 475 kts | 185° |
| 2026-05-07 13:57 | 48.74075 | -3.62116 | 38983 ft | 475 kts | 185° |
| 2026-05-07 13:57 | 48.67490 | -3.62709 | 38984 ft | 475 kts | 185° |
| 2026-05-07 13:58 | 48.60886 | -3.63303 | 38982 ft | 475 kts | 185° |
| 2026-05-07 13:58 | 48.54301 | -3.63891 | 38979 ft | 475 kts | 185° |
| 2026-05-07 13:59 | 48.47726 | -3.64480 | 38976 ft | 474 kts | 185° |
| 2026-05-07 13:59 | 48.41158 | -3.65066 | 38974 ft | 474 kts | 185° |
| 2026-05-07 14:00 | 48.34551 | -3.65653 | 38971 ft | 475 kts | 185° |
| 2026-05-07 14:00 | 48.27981 | -3.66236 | 38974 ft | 475 kts | 185° |
| 2026-05-07 14:01 | 48.21363 | -3.66821 | 38979 ft | 475 kts | 185° |
| 2026-05-07 14:01 | 48.14788 | -3.67402 | 38972 ft | 475 kts | 185° |
| 2026-05-07 14:02 | 48.08201 | -3.67981 | 38977 ft | 475 kts | 185° |
| 2026-05-07 14:02 | 48.01596 | -3.68561 | 38984 ft | 474 kts | 185° |
| 2026-05-07 14:03 | 47.95012 | -3.69137 | 38978 ft | 475 kts | 185° |
| 2026-05-07 14:03 | 47.88399 | -3.69714 | 38989 ft | 474 kts | 185° |
| 2026-05-07 14:04 | 47.81805 | -3.70289 | 38993 ft | 474 kts | 185° |
| 2026-05-07 14:04 | 47.75239 | -3.70859 | 39006 ft | 474 kts | 185° |
| 2026-05-07 14:05 | 47.68632 | -3.71431 | 39004 ft | 474 kts | 185° |
| 2026-05-07 14:05 | 47.62037 | -3.72001 | 39005 ft | 474 kts | 185° |
| 2026-05-07 14:06 | 47.55486 | -3.72566 | 39004 ft | 474 kts | 185° |
| 2026-05-07 14:06 | 47.48885 | -3.73134 | 38994 ft | 473 kts | 185° |
| 2026-05-07 14:07 | 47.42323 | -3.73697 | 38998 ft | 473 kts | 185° |
| 2026-05-07 14:07 | 47.35762 | -3.74259 | 39001 ft | 474 kts | 185° |
| 2026-05-07 14:08 | 47.29148 | -3.74823 | 38994 ft | 475 kts | 185° |
| 2026-05-07 14:08 | 47.22567 | -3.75383 | 38996 ft | 475 kts | 185° |
| 2026-05-07 14:09 | 47.15991 | -3.75942 | 39003 ft | 475 kts | 185° |
| 2026-05-07 14:09 | 47.09379 | -3.76501 | 38991 ft | 475 kts | 185° |
| 2026-05-07 14:10 | 47.02768 | -3.77060 | 38995 ft | 475 kts | 185° |
| 2026-05-07 14:10 | 46.96195 | -3.77615 | 38990 ft | 475 kts | 185° |
| 2026-05-07 14:11 | 46.89570 | -3.78172 | 38989 ft | 475 kts | 185° |
| 2026-05-07 14:11 | 46.82995 | -3.78723 | 38995 ft | 475 kts | 185° |
| 2026-05-07 14:12 | 46.76407 | -3.79274 | 38991 ft | 475 kts | 185° |
| 2026-05-07 14:12 | 46.69786 | -3.79827 | 38991 ft | 475 kts | 185° |
| 2026-05-07 14:13 | 46.63172 | -3.80377 | 38997 ft | 475 kts | 185° |
| 2026-05-07 14:13 | 46.56601 | -3.80923 | 38994 ft | 475 kts | 185° |
| 2026-05-07 14:14 | 46.49975 | -3.81472 | 38974 ft | 475 kts | 185° |
| 2026-05-07 14:14 | 46.43382 | -3.82017 | 38992 ft | 475 kts | 185° |
| 2026-05-07 14:15 | 46.36800 | -3.82560 | 38991 ft | 475 kts | 185° |
| 2026-05-07 14:15 | 46.30164 | -3.83106 | 38975 ft | 475 kts | 185° |
| 2026-05-07 14:16 | 46.23595 | -3.83645 | 38984 ft | 475 kts | 185° |
| 2026-05-07 14:16 | 46.16977 | -3.84187 | 38981 ft | 475 kts | 185° |
| 2026-05-07 14:17 | 46.10411 | -3.84723 | 38982 ft | 475 kts | 185° |
| 2026-05-07 14:17 | 46.03770 | -3.85264 | 38981 ft | 475 kts | 185° |
| 2026-05-07 14:18 | 45.97158 | -3.85802 | 38977 ft | 475 kts | 185° |
| 2026-05-07 14:18 | 45.90590 | -3.86335 | 38970 ft | 475 kts | 185° |
| 2026-05-07 14:19 | 45.83971 | -3.86870 | 38972 ft | 475 kts | 185° |
| 2026-05-07 14:19 | 45.77355 | -3.87404 | 38972 ft | 475 kts | 185° |
| 2026-05-07 14:20 | 45.70768 | -3.87934 | 38959 ft | 475 kts | 185° |
| 2026-05-07 14:20 | 45.64149 | -3.88466 | 38967 ft | 475 kts | 185° |
| 2026-05-07 14:21 | 45.57569 | -3.88993 | 38969 ft | 475 kts | 185° |
| 2026-05-07 14:21 | 45.50939 | -3.89523 | 38965 ft | 475 kts | 185° |
| 2026-05-07 14:22 | 45.44345 | -3.90049 | 38962 ft | 477 kts | 185° |
| 2026-05-07 14:22 | 45.37726 | -3.90576 | 38961 ft | 478 kts | 185° |
| 2026-05-07 14:23 | 45.31081 | -3.91103 | 38944 ft | 478 kts | 185° |
| 2026-05-07 14:23 | 45.24413 | -3.91631 | 38953 ft | 478 kts | 185° |
| 2026-05-07 14:24 | 45.17797 | -3.92154 | 38955 ft | 478 kts | 185° |
| 2026-05-07 14:24 | 45.11130 | -3.92679 | 38951 ft | 478 kts | 185° |
| 2026-05-07 14:25 | 45.04463 | -3.93203 | 38952 ft | 479 kts | 185° |
| 2026-05-07 14:25 | 44.97846 | -3.93722 | 38953 ft | 479 kts | 185° |
| 2026-05-07 14:26 | 44.91202 | -3.94242 | 38943 ft | 479 kts | 185° |
| 2026-05-07 14:26 | 44.84533 | -3.94762 | 38949 ft | 479 kts | 185° |
| 2026-05-07 14:27 | 44.77912 | -3.95278 | 38948 ft | 479 kts | 185° |
| 2026-05-07 14:27 | 44.71221 | -3.95798 | 38946 ft | 479 kts | 185° |
| 2026-05-07 14:28 | 44.64579 | -3.96312 | 38940 ft | 479 kts | 185° |
| 2026-05-07 14:28 | 44.57952 | -3.96824 | 38937 ft | 479 kts | 185° |
| 2026-05-07 14:29 | 44.51265 | -3.97339 | 38933 ft | 479 kts | 185° |
| 2026-05-07 14:29 | 44.44641 | -3.97847 | 38933 ft | 479 kts | 185° |
| 2026-05-07 14:30 | 44.37975 | -3.98358 | 38924 ft | 479 kts | 185° |
| 2026-05-07 14:30 | 44.31323 | -3.98529 | 38923 ft | 481 kts | 181° |
| 2026-05-07 14:31 | 44.24620 | -3.97934 | 38925 ft | 482 kts | 178° |
| 2026-05-07 14:31 | 44.17907 | -3.97281 | 38918 ft | 482 kts | 178° |
| 2026-05-07 14:32 | 44.11252 | -3.96633 | 38909 ft | 482 kts | 179° |
| 2026-05-07 14:32 | 44.04548 | -3.95983 | 38908 ft | 482 kts | 179° |
| 2026-05-07 14:33 | 43.97888 | -3.95334 | 38906 ft | 481 kts | 179° |
| 2026-05-07 14:33 | 43.91204 | -3.94685 | 38895 ft | 482 kts | 179° |
| 2026-05-07 14:34 | 43.84501 | -3.94032 | 38903 ft | 482 kts | 179° |
| 2026-05-07 14:34 | 43.77840 | -3.93393 | 38896 ft | 482 kts | 179° |
| 2026-05-07 14:35 | 43.71124 | -3.92745 | 38886 ft | 483 kts | 179° |
| 2026-05-07 14:35 | 43.64434 | -3.92103 | 38891 ft | 483 kts | 179° |
| 2026-05-07 14:36 | 43.57714 | -3.91453 | 38884 ft | 483 kts | 179° |
| 2026-05-07 14:36 | 43.51025 | -3.90815 | 38870 ft | 483 kts | 179° |
| 2026-05-07 14:37 | 43.44323 | -3.90619 | 38876 ft | 481 kts | 184° |
| 2026-05-07 14:37 | 43.34347 | -3.91829 | 38869 ft | 480 kts | 188° |
| 2026-05-07 14:38 | 43.27720 | -3.92808 | 38875 ft | 480 kts | 188° |
| 2026-05-07 14:38 | 43.22178 | -3.93623 | 38878 ft | 480 kts | 188° |
| 2026-05-07 14:39 | 43.15519 | -3.94603 | 38871 ft | 480 kts | 188° |
| 2026-05-07 14:39 | 43.08896 | -3.95577 | 38875 ft | 480 kts | 188° |
| 2026-05-07 14:40 | 43.02246 | -3.96551 | 38879 ft | 480 kts | 188° |
| 2026-05-07 14:40 | 42.95586 | -3.97526 | 38881 ft | 480 kts | 188° |
| 2026-05-07 14:41 | 42.88953 | -3.98500 | 38875 ft | 480 kts | 188° |
| 2026-05-07 14:41 | 42.82288 | -3.99473 | 38880 ft | 480 kts | 188° |
| 2026-05-07 14:42 | 42.75658 | -4.00437 | 38880 ft | 480 kts | 188° |
| 2026-05-07 14:42 | 42.69028 | -4.01399 | 38885 ft | 480 kts | 188° |
| 2026-05-07 14:43 | 42.62367 | -4.02362 | 38882 ft | 480 kts | 188° |
| 2026-05-07 14:43 | 42.55714 | -4.03323 | 38882 ft | 480 kts | 188° |
| 2026-05-07 14:44 | 42.49092 | -4.04283 | 38879 ft | 481 kts | 188° |
| 2026-05-07 14:44 | 42.42421 | -4.05246 | 38889 ft | 481 kts | 188° |
| 2026-05-07 14:45 | 42.35748 | -4.06206 | 38889 ft | 481 kts | 188° |
| 2026-05-07 14:45 | 42.29121 | -4.07156 | 38881 ft | 481 kts | 188° |
| 2026-05-07 14:46 | 42.22465 | -4.08107 | 38886 ft | 481 kts | 188° |
| 2026-05-07 14:46 | 42.15801 | -4.09057 | 38885 ft | 481 kts | 188° |
| 2026-05-07 14:47 | 42.09143 | -4.10002 | 38881 ft | 481 kts | 188° |
| 2026-05-07 14:47 | 42.02527 | -4.10941 | 38888 ft | 481 kts | 188° |
| 2026-05-07 14:48 | 41.95843 | -4.11738 | 38893 ft | 481 kts | 187° |
| 2026-05-07 14:48 | 41.89192 | -4.12477 | 38881 ft | 481 kts | 187° |
| 2026-05-07 14:49 | 41.82538 | -4.13224 | 38890 ft | 481 kts | 187° |
| 2026-05-07 14:49 | 41.75846 | -4.13981 | 38894 ft | 481 kts | 187° |
| 2026-05-07 14:50 | 41.69190 | -4.14735 | 38885 ft | 481 kts | 187° |
| 2026-05-07 14:50 | 41.62503 | -4.15489 | 38893 ft | 481 kts | 187° |
| 2026-05-07 14:51 | 41.55857 | -4.16237 | 38892 ft | 482 kts | 187° |
| 2026-05-07 14:51 | 41.49157 | -4.16991 | 38898 ft | 482 kts | 187° |
| 2026-05-07 14:52 | 41.42511 | -4.17741 | 38892 ft | 481 kts | 187° |
| 2026-05-07 14:52 | 41.35828 | -4.18491 | 38895 ft | 481 kts | 187° |
| 2026-05-07 14:53 | 41.29130 | -4.19239 | 38899 ft | 481 kts | 187° |
| 2026-05-07 14:53 | 41.22490 | -4.19982 | 38893 ft | 481 kts | 187° |
| 2026-05-07 14:54 | 41.15844 | -4.20727 | 38902 ft | 481 kts | 187° |
| 2026-05-07 14:54 | 41.09162 | -4.21470 | 38908 ft | 481 kts | 187° |
| 2026-05-07 14:55 | 41.02518 | -4.22205 | 38888 ft | 481 kts | 187° |
| 2026-05-07 14:55 | 40.95837 | -4.22949 | 38897 ft | 482 kts | 187° |
| 2026-05-07 14:56 | 40.89178 | -4.23689 | 38915 ft | 482 kts | 187° |
| 2026-05-07 14:56 | 40.82465 | -4.24431 | 38897 ft | 482 kts | 187° |
| 2026-05-07 14:57 | 40.75807 | -4.25160 | 38913 ft | 483 kts | 188° |
| 2026-05-07 14:57 | 40.69072 | -4.25902 | 38911 ft | 483 kts | 188° |
| 2026-05-07 14:58 | 40.62343 | -4.26640 | 38910 ft | 483 kts | 188° |
| 2026-05-07 14:58 | 40.55675 | -4.27369 | 38907 ft | 483 kts | 188° |
| 2026-05-07 14:59 | 40.48959 | -4.28102 | 38904 ft | 483 kts | 188° |
| 2026-05-07 14:59 | 40.42283 | -4.28830 | 38903 ft | 483 kts | 188° |
| 2026-05-07 15:00 | 40.35549 | -4.29556 | 38893 ft | 486 kts | 188° |
| 2026-05-07 15:00 | 40.28826 | -4.30287 | 38900 ft | 487 kts | 188° |
| 2026-05-07 15:01 | 40.22039 | -4.31023 | 38900 ft | 487 kts | 188° |
| 2026-05-07 15:01 | 40.15304 | -4.31749 | 38884 ft | 487 kts | 188° |
| 2026-05-07 15:02 | 40.08579 | -4.32472 | 38889 ft | 487 kts | 188° |
| 2026-05-07 15:02 | 40.01800 | -4.33200 | 38889 ft | 487 kts | 188° |
| 2026-05-07 15:03 | 39.95080 | -4.34132 | 38887 ft | 485 kts | 192° |
| 2026-05-07 15:03 | 39.88379 | -4.35582 | 38886 ft | 486 kts | 193° |
| 2026-05-07 15:04 | 39.81724 | -4.37016 | 38886 ft | 486 kts | 193° |
| 2026-05-07 15:04 | 39.75088 | -4.38446 | 38887 ft | 486 kts | 193° |
| 2026-05-07 15:05 | 39.68395 | -4.39877 | 38879 ft | 486 kts | 193° |
| 2026-05-07 15:05 | 39.61700 | -4.41308 | 38885 ft | 487 kts | 193° |
| 2026-05-07 15:06 | 39.55045 | -4.42727 | 38883 ft | 487 kts | 193° |
| 2026-05-07 15:06 | 39.48354 | -4.44147 | 38861 ft | 486 kts | 194° |
| 2026-05-07 15:07 | 39.41639 | -4.45562 | 38884 ft | 486 kts | 194° |
| 2026-05-07 15:07 | 39.34990 | -4.46976 | 38889 ft | 486 kts | 194° |
| 2026-05-07 15:08 | 39.28376 | -4.48736 | 38887 ft | 481 kts | 200° |
| 2026-05-07 15:08 | 39.22097 | -4.51438 | 38880 ft | 475 kts | 207° |
| 2026-05-07 15:09 | 39.19098 | -4.53131 | 38870 ft | 462 kts | 211° |
| 2026-05-07 15:09 | 39.16290 | -4.54975 | 38876 ft | 452 kts | 214° |
| 2026-05-07 15:09 | 39.10970 | -4.59215 | 38875 ft | 444 kts | 219° |
| 2026-05-07 15:10 | 39.05832 | -4.63604 | 38874 ft | 443 kts | 219° |
| 2026-05-07 15:10 | 39.00714 | -4.67956 | 38859 ft | 439 kts | 220° |
| 2026-05-07 15:11 | 38.95629 | -4.72270 | 38858 ft | 434 kts | 220° |
| 2026-05-07 15:11 | 38.90603 | -4.76532 | 38669 ft | 434 kts | 220° |
| 2026-05-07 15:12 | 38.88082 | -4.78663 | 38361 ft | 431 kts | 220° |
| 2026-05-07 15:12 | 38.85574 | -4.80779 | 37950 ft | 428 kts | 220° |
| 2026-05-07 15:12 | 38.83095 | -4.82867 | 37436 ft | 427 kts | 220° |
| 2026-05-07 15:12 | 38.80603 | -4.84967 | 36863 ft | 426 kts | 221° |
| 2026-05-07 15:13 | 38.78156 | -4.87027 | 36266 ft | 426 kts | 221° |
| 2026-05-07 15:13 | 38.75670 | -4.89119 | 35678 ft | 426 kts | 221° |
| 2026-05-07 15:13 | 38.73183 | -4.91213 | 35082 ft | 427 kts | 222° |
| 2026-05-07 15:13 | 38.70689 | -4.93309 | 34447 ft | 430 kts | 222° |
| 2026-05-07 15:14 | 38.68169 | -4.95424 | 33732 ft | 433 kts | 223° |
| 2026-05-07 15:14 | 38.65665 | -4.97534 | 32980 ft | 435 kts | 222° |
| 2026-05-07 15:14 | 38.63149 | -4.99649 | 32307 ft | 436 kts | 222° |
| 2026-05-07 15:14 | 38.60595 | -5.01790 | 31628 ft | 438 kts | 221° |
| 2026-05-07 15:15 | 38.58029 | -5.03937 | 30914 ft | 440 kts | 221° |
| 2026-05-07 15:15 | 38.55452 | -5.06091 | 30218 ft | 442 kts | 221° |
| 2026-05-07 15:15 | 38.52878 | -5.08209 | 29410 ft | 446 kts | 219° |
| 2026-05-07 15:15 | 38.50187 | -5.10229 | 28718 ft | 449 kts | 217° |
| 2026-05-07 15:16 | 38.47416 | -5.12090 | 27999 ft | 452 kts | 214° |
| 2026-05-07 15:16 | 38.44576 | -5.13854 | 27431 ft | 452 kts | 213° |
| 2026-05-07 15:16 | 38.41742 | -5.15614 | 26957 ft | 450 kts | 213° |
| 2026-05-07 15:16 | 38.38935 | -5.17355 | 26411 ft | 447 kts | 213° |
| 2026-05-07 15:17 | 38.36181 | -5.19063 | 25911 ft | 443 kts | 213° |
| 2026-05-07 15:17 | 38.33411 | -5.20781 | 25351 ft | 441 kts | 213° |
| 2026-05-07 15:17 | 38.30656 | -5.22488 | 24841 ft | 438 kts | 213° |
| 2026-05-07 15:17 | 38.27915 | -5.24185 | 24273 ft | 437 kts | 213° |
| 2026-05-07 15:18 | 38.25177 | -5.25881 | 23768 ft | 435 kts | 213° |
| 2026-05-07 15:18 | 38.22460 | -5.27561 | 23266 ft | 432 kts | 213° |
| 2026-05-07 15:18 | 38.19799 | -5.29206 | 22741 ft | 429 kts | 212° |
| 2026-05-07 15:18 | 38.17120 | -5.30862 | 22251 ft | 424 kts | 212° |
| 2026-05-07 15:19 | 38.14478 | -5.32493 | 21813 ft | 420 kts | 212° |
| 2026-05-07 15:19 | 38.11849 | -5.34115 | 21353 ft | 416 kts | 211° |
| 2026-05-07 15:19 | 38.09255 | -5.35715 | 20931 ft | 411 kts | 211° |
| 2026-05-07 15:19 | 38.06718 | -5.37275 | 20493 ft | 408 kts | 211° |
| 2026-05-07 15:20 | 38.04164 | -5.38841 | 20080 ft | 403 kts | 211° |
| 2026-05-07 15:20 | 38.01645 | -5.40385 | 19685 ft | 400 kts | 211° |
| 2026-05-07 15:20 | 37.99130 | -5.41929 | 19259 ft | 397 kts | 210° |
| 2026-05-07 15:20 | 37.96680 | -5.43433 | 18825 ft | 396 kts | 210° |
| 2026-05-07 15:21 | 37.94197 | -5.44956 | 18373 ft | 394 kts | 210° |
| 2026-05-07 15:21 | 37.91723 | -5.46472 | 17917 ft | 392 kts | 210° |
| 2026-05-07 15:21 | 37.89259 | -5.47978 | 17443 ft | 390 kts | 210° |
| 2026-05-07 15:21 | 37.86848 | -5.49454 | 17002 ft | 387 kts | 209° |
| 2026-05-07 15:22 | 37.84427 | -5.50935 | 16613 ft | 383 kts | 209° |
| 2026-05-07 15:22 | 37.82036 | -5.52394 | 16193 ft | 380 kts | 208° |
| 2026-05-07 15:22 | 37.79655 | -5.53844 | 15814 ft | 376 kts | 208° |
| 2026-05-07 15:22 | 37.77332 | -5.55258 | 15444 ft | 373 kts | 208° |
| 2026-05-07 15:23 | 37.74995 | -5.56683 | 15044 ft | 371 kts | 208° |
| 2026-05-07 15:23 | 37.72666 | -5.58102 | 14640 ft | 369 kts | 208° |
| 2026-05-07 15:23 | 37.70358 | -5.59506 | 14252 ft | 367 kts | 208° |
| 2026-05-07 15:23 | 37.68090 | -5.60880 | 13866 ft | 364 kts | 207° |
| 2026-05-07 15:24 | 37.65812 | -5.62268 | 13459 ft | 362 kts | 207° |
| 2026-05-07 15:24 | 37.63544 | -5.63646 | 13035 ft | 359 kts | 207° |
| 2026-05-07 15:24 | 37.61296 | -5.65005 | 12644 ft | 356 kts | 207° |
| 2026-05-07 15:24 | 37.59819 | -5.65899 | 12393 ft | 353 kts | 207° |
| 2026-05-07 15:25 | 37.57612 | -5.67237 | 11995 ft | 350 kts | 207° |
| 2026-05-07 15:25 | 37.55433 | -5.68559 | 11613 ft | 347 kts | 206° |
| 2026-05-07 15:25 | 37.53260 | -5.69873 | 11223 ft | 345 kts | 206° |
| 2026-05-07 15:25 | 37.51103 | -5.71176 | 10842 ft | 342 kts | 206° |
| 2026-05-07 15:26 | 37.48970 | -5.72464 | 10633 ft | 332 kts | 206° |
| 2026-05-07 15:26 | 37.46914 | -5.73704 | 10539 ft | 319 kts | 206° |
| 2026-05-07 15:26 | 37.44966 | -5.74879 | 10429 ft | 307 kts | 206° |
| 2026-05-07 15:26 | 37.43049 | -5.75974 | 10270 ft | 297 kts | 203° |
| 2026-05-07 15:27 | 37.41180 | -5.76863 | 10179 ft | 285 kts | 199° |
| 2026-05-07 15:27 | 37.39326 | -5.77630 | 10121 ft | 274 kts | 198° |
| 2026-05-07 15:27 | 37.37526 | -5.78367 | 10003 ft | 269 kts | 198° |
| 2026-05-07 15:27 | 37.35778 | -5.79080 | 9935 ft | 265 kts | 198° |
| 2026-05-07 15:28 | 37.34025 | -5.79796 | 9828 ft | 265 kts | 198° |
| 2026-05-07 15:28 | 37.32265 | -5.80515 | 9469 ft | 265 kts | 199° |
| 2026-05-07 15:28 | 37.30515 | -5.81233 | 9167 ft | 264 kts | 198° |
| 2026-05-07 15:28 | 37.28788 | -5.81940 | 8884 ft | 263 kts | 198° |
| 2026-05-07 15:29 | 37.27053 | -5.82650 | 8573 ft | 262 kts | 198° |
| 2026-05-07 15:29 | 37.25317 | -5.83358 | 8318 ft | 260 kts | 198° |
| 2026-05-07 15:29 | 37.23602 | -5.84059 | 8050 ft | 258 kts | 198° |
| 2026-05-07 15:29 | 37.21920 | -5.84745 | 7810 ft | 256 kts | 198° |
| 2026-05-07 15:30 | 37.20234 | -5.85432 | 7522 ft | 255 kts | 198° |
| 2026-05-07 15:30 | 37.18547 | -5.86121 | 7261 ft | 253 kts | 197° |
| 2026-05-07 15:30 | 37.16869 | -5.86803 | 6983 ft | 252 kts | 197° |
| 2026-05-07 15:30 | 37.15196 | -5.87484 | 6706 ft | 251 kts | 197° |
| 2026-05-07 15:31 | 37.13535 | -5.88161 | 6448 ft | 250 kts | 197° |
| 2026-05-07 15:31 | 37.11878 | -5.88836 | 6183 ft | 249 kts | 197° |
| 2026-05-07 15:31 | 37.10236 | -5.89500 | 5935 ft | 246 kts | 197° |
| 2026-05-07 15:31 | 37.08624 | -5.90149 | 5660 ft | 246 kts | 198° |
| 2026-05-07 15:32 | 37.06994 | -5.90809 | 5390 ft | 244 kts | 198° |
| 2026-05-07 15:32 | 37.05379 | -5.91466 | 5111 ft | 243 kts | 197° |
| 2026-05-07 15:32 | 37.03746 | -5.91939 | 4914 ft | 238 kts | 193° |
| 2026-05-07 15:32 | 37.02205 | -5.92450 | 4891 ft | 225 kts | 199° |
| 2026-05-07 15:33 | 37.00775 | -5.93102 | 4892 ft | 212 kts | 201° |
| 2026-05-07 15:33 | 36.99384 | -5.93795 | 4900 ft | 210 kts | 202° |
| 2026-05-07 15:33 | 36.98070 | -5.94454 | 4809 ft | 203 kts | 202° |
| 2026-05-07 15:33 | 36.96749 | -5.95111 | 4562 ft | 204 kts | 202° |
| 2026-05-07 15:34 | 36.95429 | -5.95759 | 4278 ft | 202 kts | 202° |
| 2026-05-07 15:34 | 36.94131 | -5.96394 | 3998 ft | 203 kts | 202° |
| 2026-05-07 15:34 | 36.92815 | -5.97035 | 3741 ft | 203 kts | 203° |
| 2026-05-07 15:34 | 36.91531 | -5.97663 | 3477 ft | 202 kts | 202° |
| 2026-05-07 15:35 | 36.90244 | -5.98290 | 3212 ft | 199 kts | 203° |
| 2026-05-07 15:35 | 36.88986 | -5.98902 | 2998 ft | 188 kts | 204° |
| 2026-05-07 15:35 | 36.87793 | -5.99485 | 2743 ft | 180 kts | 204° |
| 2026-05-07 15:35 | 36.86648 | -6.00045 | 2471 ft | 173 kts | 204° |
| 2026-05-07 15:36 | 36.85559 | -6.00578 | 2216 ft | 161 kts | 205° |
| 2026-05-07 15:36 | 36.84568 | -6.01063 | 1996 ft | 147 kts | 204° |
| 2026-05-07 15:36 | 36.83628 | -6.01523 | 1803 ft | 143 kts | 204° |
| 2026-05-07 15:36 | 36.82703 | -6.01977 | 1652 ft | 142 kts | 205° |
| 2026-05-07 15:37 | 36.81783 | -6.02428 | 1451 ft | 141 kts | 204° |
| 2026-05-07 15:37 | 36.80877 | -6.02872 | 1274 ft | 141 kts | 204° |
| 2026-05-07 15:37 | 36.79956 | -6.03324 | 1090 ft | 142 kts | 203° |
| 2026-05-07 15:37 | 36.79037 | -6.03773 | 900 ft | 141 kts | 202° |
| 2026-05-07 15:38 | 36.78123 | -6.04219 | 716 ft | 141 kts | 201° |
| 2026-05-07 15:38 | 36.77211 | -6.04663 | 518 ft | 140 kts | 204° |
| 2026-05-07 15:38 | 36.76312 | -6.05108 | 310 ft | 138 kts | 203° |
| 2026-05-07 15:38 | 36.75433 | -6.05538 | 157 ft | 138 kts | 201° |
| 2026-05-07 15:39 | 36.74586 | -6.05953 | 98 ft | 88 kts | 201° |
| 2026-05-07 15:39 | 36.74222 | -6.06130 | 94 ft | 23 kts | 201° |
| 2026-05-07 15:39 | 36.74080 | -6.06250 | 93 ft | 21 kts | 227° |
| 2026-05-07 15:39 | 36.74007 | -6.06371 | 93 ft | 9 kts | 262° |
| 2026-05-07 15:40 | 36.74055 | -6.06423 | 93 ft | 11 kts | 4° |
| 2026-05-07 15:40 | 36.74135 | -6.06392 | 95 ft | 13 kts | 20° |
| 2026-05-07 15:40 | 36.74231 | -6.06347 | 93 ft | 17 kts | 22° |
| 2026-05-07 15:40 | 36.74351 | -6.06286 | 95 ft | 20 kts | 22° |
| 2026-05-07 15:41 | 36.74484 | -6.06220 | 96 ft | 22 kts | 21° |
| 2026-05-07 15:41 | 36.74624 | -6.06152 | 96 ft | 15 kts | 21° |
| 2026-05-07 15:41 | 36.74724 | -6.06124 | 99 ft | 16 kts | 336° |
| 2026-05-07 15:41 | 36.74783 | -6.06231 | 98 ft | 13 kts | 303° |
| 2026-05-07 15:42 | 36.74868 | -6.06242 | 100 ft | 14 kts | 22° |
| 2026-05-07 15:42 | 36.74900 | -6.06252 | 101 ft | 5 kts | 310° |
| 2026-05-07 15:42 | 36.74907 | -6.06268 | 99 ft | 0 kts | 294° |
| 2026-05-07 15:42 | 36.74912 | -6.06285 | 100 ft | 3 kts | 290° |
| 2026-05-07 15:43 | 36.74917 | -6.06302 | 100 ft | 3 kts | 287° |
| 2026-05-07 15:43 | 36.74921 | -6.06318 | 102 ft | 1 kts | 286° |
| 2026-05-07 15:43 | 36.74921 | -6.06320 | 101 ft | 0 kts | 286° |